createdAt,value
2023-05-04T00:00:03.992Z,0.00
2023-05-04T00:01:04.618Z,0.00
2023-05-04T00:02:03.792Z,0.00
2023-05-04T00:03:03.887Z,0.00
2023-05-04T00:04:03.989Z,0.00
2023-05-04T00:05:03.780Z,0.00
2023-05-04T00:06:03.777Z,0.00
2023-05-04T00:07:03.796Z,0.00
2023-05-04T00:08:03.762Z,0.00
2023-05-04T00:09:03.736Z,0.00
2023-05-04T00:10:04.840Z,0.00
2023-05-04T00:11:03.729Z,0.00
2023-05-04T00:12:03.725Z,0.00
2023-05-04T00:13:03.775Z,0.00
2023-05-04T00:14:03.744Z,0.00
2023-05-04T00:15:03.879Z,0.00
2023-05-04T00:16:03.771Z,0.00
2023-05-04T00:17:03.731Z,0.00
2023-05-04T00:18:03.752Z,0.00
2023-05-04T00:19:03.706Z,0.00
2023-05-04T00:20:03.823Z,0.00
2023-05-04T00:21:03.692Z,0.00
2023-05-04T00:22:03.693Z,0.00
2023-05-04T00:23:03.689Z,0.00
2023-05-04T00:24:03.690Z,0.00
2023-05-04T00:25:03.695Z,0.00
2023-05-04T00:26:03.719Z,0.00
2023-05-04T00:27:03.672Z,0.00
2023-05-04T00:28:03.705Z,0.00
2023-05-04T00:29:03.734Z,0.00
2023-05-04T00:30:04.824Z,0.00
2023-05-04T00:31:03.659Z,0.00
2023-05-04T00:32:03.807Z,0.00
2023-05-04T00:33:03.735Z,0.00
2023-05-04T00:34:03.660Z,0.00
2023-05-04T00:35:03.661Z,0.00
2023-05-04T00:36:03.622Z,0.00
2023-05-04T00:37:03.635Z,0.00
2023-05-04T00:38:03.624Z,0.00
2023-05-04T00:39:03.611Z,0.00
2023-05-04T00:40:03.832Z,0.00
2023-05-04T00:41:03.608Z,0.00
2023-05-04T00:42:03.609Z,0.00
2023-05-04T00:43:04.119Z,0.00
2023-05-04T00:44:03.593Z,0.00
2023-05-04T00:45:03.617Z,0.00
2023-05-04T00:46:03.624Z,0.00
2023-05-04T00:47:04.253Z,0.00
2023-05-04T00:48:03.641Z,0.00
2023-05-04T00:49:03.649Z,0.00
2023-05-04T00:50:03.755Z,0.00
2023-05-04T00:51:03.680Z,0.00
2023-05-04T00:52:03.556Z,0.00
2023-05-04T00:53:03.560Z,0.00
2023-05-04T00:54:03.571Z,0.00
2023-05-04T00:55:03.561Z,0.00
2023-05-04T00:56:03.544Z,0.00
2023-05-04T00:57:03.568Z,0.00
2023-05-04T00:58:03.540Z,0.00
2023-05-04T00:59:03.549Z,0.00
2023-05-04T01:00:03.685Z,0.00
2023-05-04T01:01:03.569Z,0.00
2023-05-04T01:02:04.134Z,0.00
2023-05-04T01:03:03.593Z,0.00
2023-05-04T01:04:03.619Z,0.00
2023-05-04T01:05:03.506Z,0.00
2023-05-04T01:06:03.505Z,0.00
2023-05-04T01:07:03.573Z,0.00
2023-05-04T01:08:04.684Z,0.00
2023-05-04T01:09:04.135Z,0.00
2023-05-04T01:10:03.695Z,0.00
2023-05-04T01:11:03.516Z,0.00
2023-05-04T01:12:04.133Z,0.00
2023-05-04T01:13:03.522Z,0.00
2023-05-04T01:14:04.128Z,0.00
2023-05-04T01:15:03.487Z,0.00
2023-05-04T01:16:03.476Z,0.00
2023-05-04T01:17:03.550Z,0.00
2023-05-04T01:18:03.490Z,0.00
2023-05-04T01:19:03.458Z,0.00
2023-05-04T01:20:03.566Z,0.00
2023-05-04T01:21:04.123Z,0.00
2023-05-04T01:22:03.435Z,0.00
2023-05-04T01:23:03.501Z,0.00
2023-05-04T01:24:04.133Z,0.00
2023-05-04T01:25:03.430Z,0.00
2023-05-04T01:26:03.412Z,0.00
2023-05-04T01:27:03.412Z,0.00
2023-05-04T01:28:04.626Z,0.00
2023-05-04T01:29:03.411Z,0.00
2023-05-04T01:30:03.705Z,0.00
2023-05-04T01:31:04.179Z,0.00
2023-05-04T01:32:03.383Z,0.00
2023-05-04T01:33:03.415Z,0.00
2023-05-04T01:34:03.376Z,0.00
2023-05-04T01:35:03.374Z,0.00
2023-05-04T01:36:03.399Z,0.00
2023-05-04T01:37:03.378Z,0.00
2023-05-04T01:38:03.392Z,0.00
2023-05-04T01:39:03.365Z,0.00
2023-05-04T01:40:03.632Z,0.00
2023-05-04T01:41:04.125Z,0.00
2023-05-04T01:42:03.373Z,0.00
2023-05-04T01:43:03.340Z,0.00
2023-05-04T01:44:03.824Z,0.00
2023-05-04T01:45:03.328Z,0.00
2023-05-04T01:46:03.395Z,0.00
2023-05-04T01:47:03.323Z,0.00
2023-05-04T01:48:03.345Z,0.00
2023-05-04T01:49:03.307Z,0.00
2023-05-04T01:50:03.475Z,0.00
2023-05-04T01:51:03.315Z,0.00
2023-05-04T01:52:03.301Z,0.00
2023-05-04T01:53:03.292Z,0.00
2023-05-04T01:54:03.296Z,0.00
2023-05-04T01:55:03.297Z,0.00
2023-05-04T01:56:03.281Z,0.00
2023-05-04T01:57:03.276Z,0.00
2023-05-04T01:58:03.267Z,0.00
2023-05-04T01:59:03.291Z,0.00
2023-05-04T02:00:03.584Z,0.00
2023-05-04T02:01:04.137Z,0.00
2023-05-04T02:02:03.312Z,0.00
2023-05-04T02:03:03.355Z,0.00
2023-05-04T02:04:03.442Z,0.00
2023-05-04T02:05:03.254Z,0.00
2023-05-04T02:06:03.236Z,0.00
2023-05-04T02:07:03.233Z,0.00
2023-05-04T02:08:03.222Z,0.00
2023-05-04T02:09:03.772Z,0.00
2023-05-04T02:10:03.358Z,0.00
2023-05-04T02:11:03.328Z,0.00
2023-05-04T02:12:03.202Z,0.00
2023-05-04T02:13:03.257Z,0.00
2023-05-04T02:14:03.194Z,0.00
2023-05-04T02:15:03.187Z,0.00
2023-05-04T02:16:03.211Z,0.00
2023-05-04T02:17:03.187Z,0.00
2023-05-04T02:18:03.208Z,0.00
2023-05-04T02:19:03.185Z,0.00
2023-05-04T02:20:03.354Z,0.00
2023-05-04T02:21:03.173Z,0.00
2023-05-04T02:22:03.163Z,0.00
2023-05-04T02:23:03.170Z,0.00
2023-05-04T02:24:03.162Z,0.00
2023-05-04T02:25:03.147Z,0.00
2023-05-04T02:26:03.164Z,0.00
2023-05-04T02:27:03.137Z,0.00
2023-05-04T02:28:03.125Z,0.00
2023-05-04T02:29:03.149Z,0.00
2023-05-04T02:30:03.410Z,0.00
2023-05-04T02:31:03.682Z,0.00
2023-05-04T02:32:03.208Z,0.00
2023-05-04T02:33:03.128Z,0.00
2023-05-04T02:34:03.113Z,0.00
2023-05-04T02:35:03.093Z,0.00
2023-05-04T02:36:03.086Z,0.00
2023-05-04T02:37:05.181Z,0.00
2023-05-04T02:38:03.113Z,0.00
2023-05-04T02:39:03.090Z,0.00
2023-05-04T02:40:03.396Z,0.00
2023-05-04T02:41:03.081Z,0.00
2023-05-04T02:42:03.079Z,0.00
2023-05-04T02:43:03.107Z,0.00
2023-05-04T02:44:03.067Z,0.00
2023-05-04T02:45:03.643Z,0.00
2023-05-04T02:46:03.108Z,0.00
2023-05-04T02:47:03.049Z,0.00
2023-05-04T02:48:03.161Z,0.00
2023-05-04T02:49:03.037Z,0.00
2023-05-04T02:50:03.428Z,0.00
2023-05-04T02:51:03.036Z,0.00
2023-05-04T02:52:03.014Z,0.00
2023-05-04T02:53:03.019Z,0.00
2023-05-04T02:54:03.030Z,0.00
2023-05-04T02:55:03.023Z,0.00
2023-05-04T02:56:03.021Z,4.00
2023-05-04T02:57:03.007Z,4.00
2023-05-04T02:58:03.001Z,0.00
2023-05-04T02:59:03.004Z,4.00
2023-05-04T03:00:03.188Z,4.00
2023-05-04T03:01:03.002Z,0.00
2023-05-04T03:02:04.196Z,4.00
2023-05-04T03:03:03.003Z,4.00
2023-05-04T03:04:03.004Z,4.00
2023-05-04T03:05:02.981Z,4.00
2023-05-04T03:06:02.981Z,4.00
2023-05-04T03:07:03.647Z,8.00
2023-05-04T03:08:02.972Z,12.00
2023-05-04T03:09:02.946Z,8.00
2023-05-04T03:10:03.815Z,12.00
2023-05-04T03:11:02.939Z,16.00
2023-05-04T03:12:02.934Z,12.00
2023-05-04T03:13:02.967Z,20.00
2023-05-04T03:14:02.946Z,20.00
2023-05-04T03:15:03.648Z,24.00
2023-05-04T03:16:02.961Z,28.00
2023-05-04T03:17:03.649Z,32.00
2023-05-04T03:18:02.932Z,36.00
2023-05-04T03:19:02.964Z,40.00
2023-05-04T03:20:03.203Z,44.00
2023-05-04T03:21:02.896Z,48.00
2023-05-04T03:22:03.644Z,56.00
2023-05-04T03:23:02.890Z,60.00
2023-05-04T03:24:02.877Z,68.00
2023-05-04T03:25:02.860Z,80.00
2023-05-04T03:26:02.858Z,84.00
2023-05-04T03:27:02.878Z,92.00
2023-05-04T03:28:03.721Z,100.00
2023-05-04T03:29:02.844Z,108.00
2023-05-04T03:30:03.311Z,120.00
2023-05-04T03:31:02.848Z,128.00
2023-05-04T03:32:02.858Z,140.00
2023-05-04T03:33:02.873Z,156.00
2023-05-04T03:34:02.887Z,164.00
2023-05-04T03:35:04.052Z,180.00
2023-05-04T03:36:02.837Z,192.00
2023-05-04T03:37:02.821Z,208.00
2023-05-04T03:38:02.801Z,224.00
2023-05-04T03:39:02.811Z,240.00
2023-05-04T03:40:02.955Z,256.00
2023-05-04T03:41:02.792Z,272.00
2023-05-04T03:42:02.805Z,292.00
2023-05-04T03:43:02.776Z,312.00
2023-05-04T03:44:02.821Z,328.00
2023-05-04T03:45:04.356Z,344.00
2023-05-04T03:46:02.830Z,368.00
2023-05-04T03:47:02.763Z,388.00
2023-05-04T03:48:02.814Z,408.00
2023-05-04T03:49:02.761Z,428.00
2023-05-04T03:50:03.046Z,448.00
2023-05-04T03:51:02.794Z,472.00
2023-05-04T03:52:02.778Z,496.00
2023-05-04T03:53:02.737Z,516.00
2023-05-04T03:54:02.731Z,540.00
2023-05-04T03:55:02.725Z,564.00
2023-05-04T03:56:02.723Z,584.00
2023-05-04T03:57:02.714Z,608.00
2023-05-04T03:58:02.715Z,636.00
2023-05-04T03:59:02.727Z,656.00
2023-05-04T04:00:02.847Z,684.00
2023-05-04T04:01:02.685Z,708.00
2023-05-04T04:02:02.750Z,732.00
2023-05-04T04:03:02.919Z,756.00
2023-05-04T04:04:02.794Z,780.00
2023-05-04T04:05:02.675Z,804.00
2023-05-04T04:06:02.667Z,828.00
2023-05-04T04:07:02.654Z,856.00
2023-05-04T04:08:02.658Z,876.00
2023-05-04T04:09:02.659Z,904.00
2023-05-04T04:10:02.940Z,928.00
2023-05-04T04:11:02.632Z,952.00
2023-05-04T04:12:02.629Z,976.00
2023-05-04T04:13:02.680Z,1004.00
2023-05-04T04:14:02.644Z,1028.00
2023-05-04T04:15:02.647Z,1052.00
2023-05-04T04:16:03.199Z,1072.00
2023-05-04T04:17:02.609Z,1104.00
2023-05-04T04:18:02.648Z,1128.00
2023-05-04T04:19:02.596Z,1148.00
2023-05-04T04:20:02.803Z,1172.00
2023-05-04T04:21:02.637Z,1200.00
2023-05-04T04:22:02.581Z,1224.00
2023-05-04T04:23:03.156Z,1248.00
2023-05-04T04:24:02.594Z,1272.00
2023-05-04T04:25:02.598Z,1300.00
2023-05-04T04:26:02.561Z,1324.00
2023-05-04T04:27:02.593Z,1356.00
2023-05-04T04:28:02.571Z,1376.00
2023-05-04T04:29:02.551Z,1400.00
2023-05-04T04:30:02.685Z,1420.00
2023-05-04T04:31:02.568Z,1444.00
2023-05-04T04:32:02.566Z,1472.00
2023-05-04T04:33:03.211Z,1496.00
2023-05-04T04:34:02.532Z,1520.00
2023-05-04T04:35:02.644Z,1544.00
2023-05-04T04:36:02.517Z,1572.00
2023-05-04T04:37:02.545Z,1592.00
2023-05-04T04:38:03.938Z,1620.00
2023-05-04T04:39:02.498Z,1648.00
2023-05-04T04:40:02.721Z,1680.00
2023-05-04T04:41:02.503Z,1708.00
2023-05-04T04:42:02.495Z,1732.00
2023-05-04T04:43:02.482Z,1764.00
2023-05-04T04:44:02.472Z,1788.00
2023-05-04T04:45:02.503Z,1816.00
2023-05-04T04:46:02.462Z,1836.00
2023-05-04T04:47:02.501Z,1864.00
2023-05-04T04:48:02.509Z,1892.00
2023-05-04T04:49:02.479Z,1924.00
2023-05-04T04:50:02.530Z,1968.00
2023-05-04T04:51:02.448Z,2008.00
2023-05-04T04:52:02.429Z,2036.00
2023-05-04T04:53:02.432Z,2056.00
2023-05-04T04:54:02.445Z,2032.00
2023-05-04T04:55:02.428Z,2092.00
2023-05-04T04:56:09.625Z,2124.00
2023-05-04T04:58:06.492Z,2188.00
2023-05-04T04:59:06.380Z,2252.00
2023-05-04T05:01:10.490Z,2380.00
2023-05-04T05:02:10.408Z,2444.00
2023-05-04T05:04:14.398Z,2544.00
2023-05-04T05:05:14.451Z,2568.00
2023-05-04T05:07:07.334Z,2588.00
2023-05-04T05:08:07.304Z,2596.00
2023-05-04T05:10:11.363Z,2624.00
2023-05-04T05:11:11.313Z,2648.00
2023-05-04T05:13:15.323Z,2716.00
2023-05-04T05:14:15.264Z,2744.00
2023-05-04T05:16:19.317Z,2788.00
2023-05-04T05:17:19.242Z,2816.00
2023-05-04T05:19:23.227Z,2880.00
2023-05-04T05:20:23.210Z,2920.00
2023-05-04T05:21:23.235Z,2964.00
2023-05-04T05:22:23.214Z,3012.00
2023-05-04T05:23:23.195Z,3084.00
2023-05-04T05:24:23.196Z,3156.00
2023-05-04T05:25:23.192Z,3236.00
2023-05-04T05:26:24.134Z,3308.00
2023-05-04T05:27:23.174Z,3372.00
2023-05-04T05:28:23.170Z,3440.00
2023-05-04T05:29:23.165Z,3500.00
2023-05-04T05:30:23.170Z,3532.00
2023-05-04T05:31:23.172Z,3568.00
2023-05-04T05:32:23.159Z,3608.00
2023-05-04T05:33:23.149Z,3672.00
2023-05-04T05:34:23.146Z,3740.00
2023-05-04T05:35:23.155Z,3828.00
2023-05-04T05:36:23.147Z,11380.00
2023-05-04T05:37:23.133Z,36640.00
2023-05-04T05:38:23.133Z,63392.00
2023-05-04T05:39:23.120Z,76672.00
2023-05-04T05:40:23.123Z,77312.00
2023-05-04T05:41:23.119Z,78528.00
2023-05-04T05:42:23.283Z,79296.00
2023-05-04T05:43:23.127Z,80704.00
2023-05-04T05:44:23.122Z,84608.00
2023-05-04T05:45:23.201Z,85184.00
2023-05-04T05:46:23.149Z,83168.00
2023-05-04T05:47:23.141Z,83072.00
2023-05-04T05:48:23.220Z,82592.00
2023-05-04T05:49:23.113Z,70240.00
2023-05-04T05:50:23.115Z,67712.00
2023-05-04T05:51:23.109Z,79584.00
2023-05-04T05:52:23.131Z,90656.00
2023-05-04T05:53:23.119Z,90368.00
2023-05-04T05:54:23.133Z,93120.00
2023-05-04T05:55:23.138Z,94720.00
2023-05-04T05:56:23.157Z,95168.00
2023-05-04T05:57:23.138Z,96576.00
2023-05-04T05:58:23.144Z,97120.00
2023-05-04T05:59:24.144Z,98208.00
2023-05-04T06:00:23.158Z,91680.00
2023-05-04T06:01:24.302Z,87008.00
2023-05-04T06:02:23.237Z,94272.00
2023-05-04T06:03:23.366Z,95264.00
2023-05-04T06:04:23.270Z,95680.00
2023-05-04T06:05:23.208Z,92960.00
2023-05-04T06:06:23.209Z,90752.00
2023-05-04T06:07:23.214Z,94336.00
2023-05-04T06:08:23.221Z,97856.00
2023-05-04T06:09:23.238Z,92096.00
2023-05-04T06:10:23.249Z,90528.00
2023-05-04T06:11:23.264Z,91168.00
2023-05-04T06:12:24.706Z,91776.00
2023-05-04T06:13:23.265Z,92736.00
2023-05-04T06:14:24.153Z,94432.00
2023-05-04T06:15:23.291Z,90016.00
2023-05-04T06:16:23.336Z,89600.00
2023-05-04T06:17:23.349Z,79776.00
2023-05-04T06:18:23.320Z,94560.00
2023-05-04T06:19:23.335Z,94208.00
2023-05-04T06:20:23.331Z,94016.00
2023-05-04T06:21:23.350Z,93408.00
2023-05-04T06:22:23.380Z,91968.00
2023-05-04T06:23:23.377Z,91616.00
2023-05-04T06:24:23.375Z,91936.00
2023-05-04T06:25:23.392Z,92128.00
2023-05-04T06:26:23.415Z,94272.00
2023-05-04T06:27:24.274Z,95296.00
2023-05-04T06:28:23.444Z,95552.00
2023-05-04T06:29:23.427Z,96192.00
2023-05-04T06:30:23.438Z,94912.00
2023-05-04T06:31:23.476Z,89600.00
2023-05-04T06:32:23.507Z,87616.00
2023-05-04T06:33:23.502Z,88768.00
2023-05-04T06:34:23.486Z,91360.00
2023-05-04T06:35:23.501Z,92480.00
2023-05-04T06:36:23.505Z,90592.00
2023-05-04T06:37:23.645Z,92096.00
2023-05-04T06:38:23.541Z,94176.00
2023-05-04T06:39:23.546Z,96096.00
2023-05-04T06:40:23.565Z,96384.00
2023-05-04T06:41:23.591Z,92576.00
2023-05-04T06:42:23.603Z,88000.00
2023-05-04T06:43:24.163Z,88288.00
2023-05-04T06:44:23.612Z,91840.00
2023-05-04T06:45:23.646Z,94208.00
2023-05-04T06:46:23.659Z,94240.00
2023-05-04T06:47:23.742Z,84704.00
2023-05-04T06:48:23.649Z,93152.00
2023-05-04T06:49:23.669Z,93568.00
2023-05-04T06:50:23.696Z,91680.00
2023-05-04T06:51:23.709Z,87360.00
2023-05-04T06:52:23.726Z,88160.00
2023-05-04T06:53:23.735Z,90176.00
2023-05-04T06:54:23.732Z,89152.00
2023-05-04T06:55:23.742Z,91072.00
2023-05-04T06:56:23.775Z,94112.00
2023-05-04T06:57:23.769Z,92448.00
2023-05-04T06:58:23.808Z,90432.00
2023-05-04T06:59:23.820Z,87808.00
2023-05-04T07:00:23.826Z,86848.00
2023-05-04T07:01:23.900Z,88928.00
2023-05-04T07:02:23.933Z,92032.00
2023-05-04T07:03:23.990Z,94048.00
2023-05-04T07:04:26.787Z,94016.00
2023-05-04T07:05:23.904Z,92352.00
2023-05-04T07:06:23.922Z,90368.00
2023-05-04T07:07:23.942Z,85952.00
2023-05-04T07:08:23.933Z,89536.00
2023-05-04T07:09:23.972Z,94976.00
2023-05-04T07:10:23.986Z,95232.00
2023-05-04T07:11:23.958Z,92224.00
2023-05-04T07:12:24.039Z,90464.00
2023-05-04T07:13:23.990Z,91424.00
2023-05-04T07:14:24.008Z,90720.00
2023-05-04T07:15:24.015Z,88736.00
2023-05-04T07:16:24.129Z,88768.00
2023-05-04T07:17:24.156Z,90240.00
2023-05-04T07:18:24.087Z,92160.00
2023-05-04T07:19:24.090Z,92192.00
2023-05-04T07:20:26.020Z,91680.00
2023-05-04T07:21:28.399Z,89248.00
2023-05-04T07:22:24.170Z,88000.00
2023-05-04T07:23:24.152Z,89632.00
2023-05-04T07:24:24.195Z,86752.00
2023-05-04T07:25:24.158Z,82592.00
2023-05-04T07:26:24.168Z,83872.00
2023-05-04T07:27:24.232Z,86496.00
2023-05-04T07:28:24.203Z,89696.00
2023-05-04T07:29:24.247Z,90240.00
2023-05-04T07:30:24.303Z,95392.00
2023-05-04T07:31:24.286Z,92416.00
2023-05-04T07:32:24.341Z,85120.00
2023-05-04T07:33:24.293Z,91392.00
2023-05-04T07:34:33.983Z,93856.00
2023-05-04T07:35:24.310Z,95072.00
2023-05-04T07:36:24.346Z,93280.00
2023-05-04T07:37:24.576Z,92128.00
2023-05-04T07:38:24.454Z,97440.00
2023-05-04T07:39:24.358Z,95328.00
2023-05-04T07:40:24.399Z,97824.00
2023-05-04T07:41:24.470Z,89920.00
2023-05-04T07:42:24.474Z,91520.00
2023-05-04T07:43:24.452Z,94176.00
2023-05-04T07:44:24.524Z,93952.00
2023-05-04T07:45:24.460Z,89824.00
2023-05-04T07:46:24.491Z,89184.00
2023-05-04T07:47:24.734Z,92896.00
2023-05-04T07:48:26.341Z,90176.00
2023-05-04T07:49:24.517Z,75072.00
2023-05-04T07:50:25.268Z,68448.00
2023-05-04T07:51:24.576Z,74400.00
2023-05-04T07:52:24.551Z,82496.00
2023-05-04T07:53:24.587Z,84512.00
2023-05-04T07:54:24.636Z,82592.00
2023-05-04T07:55:24.610Z,78720.00
2023-05-04T07:56:24.649Z,83712.00
2023-05-04T07:57:24.712Z,81600.00
2023-05-04T07:58:24.684Z,84064.00
2023-05-04T07:59:24.680Z,76896.00
2023-05-04T08:00:24.713Z,39296.00
2023-05-04T08:01:24.792Z,22336.00
2023-05-04T08:02:24.895Z,20160.00
2023-05-04T08:03:24.902Z,19008.00
2023-05-04T08:04:24.758Z,18240.00
2023-05-04T08:05:24.777Z,17536.00
2023-05-04T08:06:24.806Z,16960.00
2023-05-04T08:07:25.749Z,16448.00
2023-05-04T08:08:25.764Z,16032.00
2023-05-04T08:09:24.824Z,15616.00
2023-05-04T08:10:24.885Z,15152.00
2023-05-04T08:11:24.848Z,14172.00
2023-05-04T08:12:25.759Z,12968.00
2023-05-04T08:13:24.880Z,12024.00
2023-05-04T08:14:24.881Z,12760.00
2023-05-04T08:15:24.888Z,12000.00
2023-05-04T08:16:24.925Z,11784.00
2023-05-04T08:17:25.807Z,12140.00
2023-05-04T08:18:25.857Z,11512.00
2023-05-04T08:19:25.742Z,11352.00
2023-05-04T08:20:25.103Z,11324.00
2023-05-04T08:21:25.120Z,10632.00
2023-05-04T08:22:24.980Z,10536.00
2023-05-04T08:23:25.056Z,10304.00
2023-05-04T08:24:25.025Z,10340.00
2023-05-04T08:25:25.011Z,10164.00
2023-05-04T08:26:25.014Z,10012.00
2023-05-04T08:27:25.225Z,9952.00
2023-05-04T08:28:25.072Z,9932.00
2023-05-04T08:29:25.755Z,9768.00
2023-05-04T08:30:25.053Z,9500.00
2023-05-04T08:31:25.121Z,9148.00
2023-05-04T08:32:25.132Z,8836.00
2023-05-04T08:33:25.142Z,8476.00
2023-05-04T08:34:25.090Z,8276.00
2023-05-04T08:35:25.081Z,8056.00
2023-05-04T08:36:25.097Z,8072.00
2023-05-04T08:37:25.133Z,8040.00
2023-05-04T08:38:25.150Z,7912.00
2023-05-04T08:39:25.241Z,7816.00
2023-05-04T08:40:25.143Z,7752.00
2023-05-04T08:41:25.132Z,7716.00
2023-05-04T08:42:25.190Z,7624.00
2023-05-04T08:43:25.175Z,7516.00
2023-05-04T08:44:25.151Z,7452.00
2023-05-04T08:45:25.199Z,7420.00
2023-05-04T08:46:25.204Z,7412.00
2023-05-04T08:47:25.180Z,7380.00
2023-05-04T08:48:25.271Z,7320.00
2023-05-04T08:49:25.164Z,6884.00
2023-05-04T08:50:25.161Z,6900.00
2023-05-04T08:51:25.229Z,6896.00
2023-05-04T08:52:25.169Z,7212.00
2023-05-04T08:53:25.188Z,7212.00
2023-05-04T08:54:25.193Z,7192.00
2023-05-04T08:55:25.238Z,6776.00
2023-05-04T08:56:25.207Z,6948.00
2023-05-04T08:57:25.253Z,6972.00
2023-05-04T08:58:25.200Z,6920.00
2023-05-04T08:59:25.236Z,6876.00
2023-05-04T09:00:25.218Z,6664.00
2023-05-04T09:01:25.330Z,6712.00
2023-05-04T09:02:25.308Z,6652.00
2023-05-04T09:03:25.292Z,6676.00
2023-05-04T09:04:26.541Z,6712.00
2023-05-04T09:05:25.217Z,6540.00
2023-05-04T09:06:25.265Z,6128.00
2023-05-04T09:07:25.311Z,6368.00
2023-05-04T09:08:25.266Z,6460.00
2023-05-04T09:09:25.267Z,6120.00
2023-05-04T09:10:26.901Z,6108.00
2023-05-04T09:11:25.273Z,6372.00
2023-05-04T09:12:25.306Z,6400.00
2023-05-04T09:13:25.298Z,6580.00
2023-05-04T09:14:25.270Z,6684.00
2023-05-04T09:15:25.265Z,6592.00
2023-05-04T09:16:25.344Z,6508.00
2023-05-04T09:17:25.448Z,6380.00
2023-05-04T09:18:25.296Z,6412.00
2023-05-04T09:19:25.262Z,6340.00
2023-05-04T09:20:25.251Z,6248.00
2023-05-04T09:21:25.277Z,5800.00
2023-05-04T09:22:26.529Z,5756.00
2023-05-04T09:23:25.280Z,5964.00
2023-05-04T09:24:25.259Z,5960.00
2023-05-04T09:25:25.292Z,5852.00
2023-05-04T09:26:25.362Z,5540.00
2023-05-04T09:27:25.263Z,5576.00
2023-05-04T09:28:26.138Z,5588.00
2023-05-04T09:29:25.283Z,5660.00
2023-05-04T09:30:25.319Z,5756.00
2023-05-04T09:31:25.341Z,5856.00
2023-05-04T09:32:25.305Z,5784.00
2023-05-04T09:33:25.292Z,5708.00
2023-05-04T09:34:25.281Z,5612.00
2023-05-04T09:35:32.444Z,5556.00
2023-05-04T09:36:25.293Z,5484.00
2023-05-04T09:37:25.307Z,5520.00
2023-05-04T09:38:25.441Z,5452.00
2023-05-04T09:39:25.303Z,5480.00
2023-05-04T09:40:25.309Z,5604.00
2023-05-04T09:41:25.351Z,5640.00
2023-05-04T09:42:25.311Z,5672.00
2023-05-04T09:43:25.331Z,5692.00
2023-05-04T09:44:26.380Z,5772.00
2023-05-04T09:45:25.314Z,5800.00
2023-05-04T09:46:25.344Z,5796.00
2023-05-04T09:47:26.352Z,5876.00
2023-05-04T09:48:25.317Z,5940.00
2023-05-04T09:49:26.309Z,5924.00
2023-05-04T09:50:26.822Z,5940.00
2023-05-04T09:51:26.862Z,6016.00
2023-05-04T09:52:25.328Z,5952.00
2023-05-04T09:53:25.371Z,6028.00
2023-05-04T09:54:25.325Z,6036.00
2023-05-04T09:55:25.354Z,6016.00
2023-05-04T09:56:25.339Z,6044.00
2023-05-04T09:57:25.336Z,6012.00
2023-05-04T09:58:25.366Z,6084.00
2023-05-04T09:59:25.340Z,6080.00
2023-05-04T10:00:25.349Z,6092.00
2023-05-04T10:01:25.376Z,6112.00
2023-05-04T10:02:25.378Z,6156.00
2023-05-04T10:03:25.426Z,6216.00
2023-05-04T10:04:25.385Z,6248.00
2023-05-04T10:05:25.369Z,6296.00
2023-05-04T10:06:25.353Z,6440.00
2023-05-04T10:07:25.371Z,6420.00
2023-05-04T10:08:25.373Z,6408.00
2023-05-04T10:09:25.381Z,6388.00
2023-05-04T10:10:26.309Z,6268.00
2023-05-04T10:11:25.366Z,6280.00
2023-05-04T10:12:25.391Z,6192.00
2023-05-04T10:13:25.384Z,5960.00
2023-05-04T10:14:26.786Z,5932.00
2023-05-04T10:15:25.379Z,5968.00
2023-05-04T10:16:25.415Z,6064.00
2023-05-04T10:17:25.394Z,6148.00
2023-05-04T10:18:25.382Z,6112.00
2023-05-04T10:19:25.378Z,6092.00
2023-05-04T10:20:26.299Z,6108.00
2023-05-04T10:21:25.382Z,5888.00
2023-05-04T10:22:25.392Z,5752.00
2023-05-04T10:23:25.395Z,5816.00
2023-05-04T10:24:25.408Z,5896.00
2023-05-04T10:25:25.425Z,5836.00
2023-05-04T10:26:25.407Z,5812.00
2023-05-04T10:27:25.412Z,5832.00
2023-05-04T10:28:25.389Z,5768.00
2023-05-04T10:29:25.391Z,5644.00
2023-05-04T10:30:25.414Z,5756.00
2023-05-04T10:31:25.442Z,5840.00
2023-05-04T10:32:25.477Z,5924.00
2023-05-04T10:33:25.409Z,5740.00
2023-05-04T10:34:25.410Z,5720.00
2023-05-04T10:35:25.409Z,5744.00
2023-05-04T10:36:25.410Z,5728.00
2023-05-04T10:37:25.410Z,5684.00
2023-05-04T10:38:25.474Z,5668.00
2023-05-04T10:39:25.408Z,5664.00
2023-05-04T10:40:25.478Z,5600.00
2023-05-04T10:41:25.415Z,5648.00
2023-05-04T10:42:25.433Z,5588.00
2023-05-04T10:43:25.461Z,5572.00
2023-05-04T10:44:25.439Z,5604.00
2023-05-04T10:45:25.501Z,5644.00
2023-05-04T10:46:25.460Z,5672.00
2023-05-04T10:47:25.628Z,5696.00
2023-05-04T10:48:25.457Z,5692.00
2023-05-04T10:49:25.475Z,5596.00
2023-05-04T10:50:26.377Z,5532.00
2023-05-04T10:51:32.672Z,5620.00
2023-05-04T10:52:25.441Z,5648.00
2023-05-04T10:53:25.448Z,5612.00
2023-05-04T10:54:25.461Z,5580.00
2023-05-04T10:55:25.438Z,5516.00
2023-05-04T10:56:25.499Z,5512.00
2023-05-04T10:57:25.448Z,5500.00
2023-05-04T10:58:25.493Z,5560.00
2023-05-04T10:59:25.446Z,5536.00
2023-05-04T11:00:25.456Z,5560.00
2023-05-04T11:01:25.477Z,5536.00
2023-05-04T11:02:25.555Z,5544.00
2023-05-04T11:03:25.570Z,5508.00
2023-05-04T11:04:25.470Z,5464.00
2023-05-04T11:05:25.462Z,5444.00
2023-05-04T11:06:25.504Z,5452.00
2023-05-04T11:07:26.398Z,5436.00
2023-05-04T11:08:25.473Z,5476.00
2023-05-04T11:09:25.453Z,5484.00
2023-05-04T11:10:25.523Z,5520.00
2023-05-04T11:11:25.474Z,5520.00
2023-05-04T11:12:25.490Z,5588.00
2023-05-04T11:13:25.535Z,5652.00
2023-05-04T11:14:25.467Z,5760.00
2023-05-04T11:15:25.512Z,5828.00
2023-05-04T11:16:25.511Z,5880.00
2023-05-04T11:17:28.523Z,5972.00
2023-05-04T11:18:25.467Z,6028.00
2023-05-04T11:19:25.465Z,6096.00
2023-05-04T11:20:25.476Z,6112.00
2023-05-04T11:21:25.465Z,6148.00
2023-05-04T11:22:25.472Z,6180.00
2023-05-04T11:23:25.475Z,6228.00
2023-05-04T11:24:25.486Z,6152.00
2023-05-04T11:25:25.487Z,6164.00
2023-05-04T11:26:25.504Z,6108.00
2023-05-04T11:27:25.517Z,6072.00
2023-05-04T11:28:25.501Z,6040.00
2023-05-04T11:29:25.501Z,5980.00
2023-05-04T11:30:25.527Z,6136.00
2023-05-04T11:31:25.520Z,6208.00
2023-05-04T11:32:25.561Z,6280.00
2023-05-04T11:33:26.369Z,6304.00
2023-05-04T11:34:25.489Z,6244.00
2023-05-04T11:35:25.506Z,6200.00
2023-05-04T11:36:25.527Z,6260.00
2023-05-04T11:37:25.506Z,6340.00
2023-05-04T11:38:25.526Z,6360.00
2023-05-04T11:39:25.498Z,6520.00
2023-05-04T11:40:25.510Z,6600.00
2023-05-04T11:41:25.508Z,6660.00
2023-05-04T11:42:25.534Z,6664.00
2023-05-04T11:43:25.522Z,6632.00
2023-05-04T11:44:25.511Z,6580.00
2023-05-04T11:45:25.519Z,6548.00
2023-05-04T11:46:25.546Z,6540.00
2023-05-04T11:47:25.575Z,6484.00
2023-05-04T11:48:25.576Z,6484.00
2023-05-04T11:49:25.545Z,6372.00
2023-05-04T11:50:25.510Z,6420.00
2023-05-04T11:51:25.581Z,6400.00
2023-05-04T11:52:25.544Z,6232.00
2023-05-04T11:53:25.511Z,6292.00
2023-05-04T11:54:25.509Z,6348.00
2023-05-04T11:55:25.505Z,6328.00
2023-05-04T11:56:25.515Z,6352.00
2023-05-04T11:57:25.530Z,6172.00
2023-05-04T11:58:25.543Z,6100.00
2023-05-04T11:59:25.519Z,6340.00
2023-05-04T12:00:25.526Z,6428.00
2023-05-04T12:01:25.539Z,6504.00
2023-05-04T12:02:25.566Z,6532.00
2023-05-04T12:03:27.999Z,6660.00
2023-05-04T12:04:25.568Z,6704.00
2023-05-04T12:05:25.544Z,6660.00
2023-05-04T12:06:25.548Z,6712.00
2023-05-04T12:07:25.538Z,6728.00
2023-05-04T12:08:25.547Z,6688.00
2023-05-04T12:09:25.586Z,6788.00
2023-05-04T12:10:26.335Z,6788.00
2023-05-04T12:11:25.679Z,6860.00
2023-05-04T12:12:25.533Z,6924.00
2023-05-04T12:13:25.535Z,6972.00
2023-05-04T12:14:25.676Z,7004.00
2023-05-04T12:15:25.550Z,6980.00
2023-05-04T12:16:25.567Z,6932.00
2023-05-04T12:17:25.565Z,6912.00
2023-05-04T12:18:25.609Z,6876.00
2023-05-04T12:19:25.546Z,6796.00
2023-05-04T12:20:25.581Z,6756.00
2023-05-04T12:21:25.560Z,6760.00
2023-05-04T12:22:25.552Z,6792.00
2023-05-04T12:23:25.544Z,6748.00
2023-05-04T12:24:25.559Z,6744.00
2023-05-04T12:25:25.592Z,6808.00
2023-05-04T12:26:25.582Z,6668.00
2023-05-04T12:27:25.578Z,6588.00
2023-05-04T12:28:26.337Z,6564.00